createdAt,value
2018-11-02T00:02:07.285Z,5.75
2018-11-02T00:04:35.744Z,5.55
2018-11-02T00:07:04.190Z,5.43
2018-11-02T00:09:32.637Z,5.34
2018-11-02T00:12:01.064Z,5.25
2018-11-02T00:14:29.512Z,5.18
2018-11-02T00:16:58.018Z,5.06
2018-11-02T00:19:31.851Z,5.00
2018-11-02T00:22:01.849Z,4.93
2018-11-02T00:24:30.337Z,4.89
2018-11-02T00:26:59.557Z,4.88
2018-11-02T00:29:28.392Z,4.89
2018-11-02T00:31:56.887Z,4.87
2018-11-02T00:34:25.295Z,4.83
2018-11-02T00:36:53.737Z,4.82
2018-11-02T00:39:22.203Z,4.68
2018-11-02T00:41:50.961Z,4.47
2018-11-02T00:44:19.457Z,4.45
2018-11-02T00:46:47.934Z,4.48
2018-11-02T00:49:16.350Z,4.48
2018-11-02T00:51:44.797Z,4.40
2018-11-02T00:54:13.256Z,4.31
2018-11-02T00:56:41.721Z,4.10
2018-11-02T00:59:10.148Z,3.87
2018-11-02T01:01:38.628Z,3.73
2018-11-02T01:04:07.267Z,3.75
2018-11-02T01:06:35.713Z,3.76
2018-11-02T01:09:04.222Z,3.89
2018-11-02T01:11:32.692Z,4.06
2018-11-02T01:14:01.128Z,4.12
2018-11-02T01:16:29.629Z,4.01
2018-11-02T01:18:58.032Z,3.89
2018-11-02T01:21:26.521Z,3.97
2018-11-02T01:23:54.954Z,3.91
2018-11-02T01:26:23.404Z,3.83
2018-11-02T01:28:51.852Z,3.74
2018-11-02T01:31:20.302Z,3.69
2018-11-02T01:33:48.737Z,3.92
2018-11-02T01:36:17.181Z,4.14
2018-11-02T01:38:45.587Z,4.40
2018-11-02T01:41:14.035Z,4.48
2018-11-02T01:43:42.478Z,4.48
2018-11-02T01:46:10.947Z,4.41
2018-11-02T01:48:39.388Z,4.33
2018-11-02T01:51:07.830Z,4.29
2018-11-02T01:53:36.272Z,4.23
2018-11-02T01:56:05.061Z,4.17
2018-11-02T01:58:33.517Z,4.14
2018-11-02T02:01:01.998Z,4.18
2018-11-02T02:03:30.473Z,4.25
2018-11-02T02:05:58.901Z,4.33
2018-11-02T02:08:27.345Z,4.41
2018-11-02T02:10:55.774Z,4.44
2018-11-02T02:13:24.275Z,4.50
2018-11-02T02:15:52.705Z,4.52
2018-11-02T02:18:24.055Z,4.52
2018-11-02T02:20:52.483Z,4.53
2018-11-02T02:23:20.999Z,4.56
2018-11-02T02:25:49.429Z,4.56
2018-11-02T02:28:17.945Z,4.55
2018-11-02T02:30:46.369Z,4.49
2018-11-02T02:33:14.848Z,4.51
2018-11-02T02:35:43.281Z,4.49
2018-11-02T02:38:11.733Z,4.51
2018-11-02T02:40:40.149Z,4.54
2018-11-02T02:43:08.636Z,4.57
2018-11-02T02:45:37.076Z,4.62
2018-11-02T02:48:05.701Z,4.62
2018-11-02T02:50:34.137Z,4.60
2018-11-02T02:53:02.614Z,4.57
2018-11-02T02:55:31.045Z,4.59
2018-11-02T02:57:59.518Z,4.59
2018-11-02T03:00:27.941Z,4.61
2018-11-02T03:02:56.385Z,4.62
2018-11-02T03:05:24.854Z,4.60
2018-11-02T03:07:53.290Z,4.63
2018-11-02T03:10:22.084Z,4.55
2018-11-02T03:12:50.550Z,4.48
2018-11-02T03:15:19.021Z,4.46
2018-11-02T03:17:47.436Z,4.46
2018-11-02T03:20:15.893Z,4.41
2018-11-02T03:22:44.393Z,4.32
2018-11-02T03:25:13.609Z,4.41
2018-11-02T03:27:42.037Z,4.46
2018-11-02T03:30:11.638Z,4.45
2018-11-02T03:32:40.080Z,4.49
2018-11-02T03:35:08.709Z,4.52
2018-11-02T03:37:37.156Z,4.52
2018-11-02T03:40:06.322Z,4.49
2018-11-02T03:42:34.830Z,4.40
2018-11-02T03:45:03.290Z,4.41
2018-11-02T03:47:31.736Z,4.40
2018-11-02T03:50:00.199Z,4.44
2018-11-02T03:52:28.633Z,4.50
2018-11-02T03:54:57.603Z,4.52
2018-11-02T03:57:26.007Z,4.58
2018-11-02T03:59:54.542Z,4.63
2018-11-02T04:02:22.961Z,4.66
2018-11-02T04:04:51.404Z,4.68
2018-11-02T04:07:19.833Z,4.68
2018-11-02T04:09:48.289Z,4.69
2018-11-02T04:12:16.731Z,4.66
2018-11-02T04:14:45.159Z,4.66
2018-11-02T04:17:13.622Z,4.62
2018-11-02T04:19:42.063Z,4.69
2018-11-02T04:22:10.521Z,4.74
2018-11-02T04:24:39.292Z,4.79
2018-11-02T04:27:07.977Z,4.78
2018-11-02T04:29:36.428Z,4.75
2018-11-02T04:32:05.244Z,4.71
2018-11-02T04:34:33.671Z,4.70
2018-11-02T04:37:02.144Z,4.66
2018-11-02T04:39:30.564Z,4.58
2018-11-02T04:41:59.026Z,4.54
2018-11-02T04:44:27.478Z,4.58
2018-11-02T04:46:55.924Z,4.62
2018-11-02T04:49:24.393Z,4.74
2018-11-02T04:51:52.859Z,4.82
2018-11-02T04:54:21.279Z,4.84
2018-11-02T04:56:49.765Z,4.82
2018-11-02T04:59:18.196Z,4.83
2018-11-02T05:01:46.652Z,4.81
2018-11-02T05:04:15.116Z,4.80
2018-11-02T05:06:43.588Z,4.84
2018-11-02T05:09:11.998Z,4.93
2018-11-02T05:11:40.480Z,5.05
2018-11-02T05:14:08.902Z,5.13
2018-11-02T05:16:37.332Z,5.19
2018-11-02T05:19:05.846Z,5.19
2018-11-02T05:21:34.323Z,5.13
2018-11-02T05:24:02.740Z,5.05
2018-11-02T05:26:31.260Z,4.99
2018-11-02T05:28:59.688Z,5.00
2018-11-02T05:31:28.134Z,5.02
2018-11-02T05:33:56.584Z,5.06
2018-11-02T05:36:24.998Z,5.07
2018-11-02T05:38:53.473Z,5.15
2018-11-02T05:41:21.893Z,5.26
2018-11-02T05:43:50.393Z,5.46
2018-11-02T05:46:18.890Z,5.62
2018-11-02T05:48:47.341Z,5.69
2018-11-02T05:51:15.773Z,5.74
2018-11-02T05:53:44.226Z,5.76
2018-11-02T05:56:12.686Z,5.82
2018-11-02T05:58:41.129Z,5.99
2018-11-02T06:01:09.549Z,6.08
2018-11-02T06:03:37.997Z,6.19
2018-11-02T06:06:06.454Z,6.28
2018-11-02T06:08:34.936Z,6.36
2018-11-02T06:11:03.402Z,6.48
2018-11-02T06:13:31.894Z,6.55
2018-11-02T06:16:00.323Z,6.51
2018-11-02T06:18:28.748Z,6.50
2018-11-02T06:20:57.169Z,6.49
2018-11-02T06:23:25.635Z,6.49
2018-11-02T06:25:54.048Z,6.47
2018-11-02T06:28:22.491Z,6.47
2018-11-02T06:30:50.908Z,6.47
2018-11-02T06:33:19.363Z,6.45
2018-11-02T06:35:47.788Z,6.45
2018-11-02T06:38:16.258Z,6.41
2018-11-02T06:40:44.714Z,6.41
2018-11-02T06:43:13.181Z,6.47
2018-11-02T06:45:41.595Z,6.52
2018-11-02T06:48:10.045Z,6.56
2018-11-02T06:50:38.570Z,6.60
2018-11-02T06:53:06.978Z,6.64
2018-11-02T06:55:35.443Z,6.65
2018-11-02T06:58:03.890Z,6.67
2018-11-02T07:00:32.458Z,6.67
2018-11-02T07:03:00.800Z,6.70
2018-11-02T07:05:29.236Z,6.78
2018-11-02T07:07:57.772Z,6.84
2018-11-02T07:10:28.955Z,6.95
2018-11-02T07:12:57.417Z,7.17
2018-11-02T07:15:25.835Z,7.39
2018-11-02T07:17:54.268Z,7.53
2018-11-02T07:20:22.753Z,7.61
2018-11-02T07:22:51.179Z,7.67
2018-11-02T07:25:19.760Z,7.76
2018-11-02T07:27:48.068Z,7.85
2018-11-02T07:30:16.594Z,7.90
2018-11-02T07:32:44.975Z,7.97
2018-11-02T07:35:13.409Z,8.01
2018-11-02T07:37:41.838Z,8.06
2018-11-02T07:40:11.421Z,8.12
2018-11-02T07:42:40.205Z,8.16
2018-11-02T07:45:09.361Z,8.23
2018-11-02T07:47:37.886Z,8.33
2018-11-02T07:50:08.354Z,8.58
2018-11-02T07:52:36.804Z,8.78
2018-11-02T07:55:06.281Z,9.02
2018-11-02T07:57:34.738Z,9.16
2018-11-02T08:00:03.237Z,9.21
2018-11-02T08:02:31.654Z,9.22
2018-11-02T08:05:00.113Z,9.20
2018-11-02T08:07:28.537Z,9.16
2018-11-02T08:09:56.981Z,9.13
2018-11-02T08:12:25.393Z,9.19
2018-11-02T08:14:53.826Z,9.30
2018-11-02T08:17:22.278Z,9.44
2018-11-02T08:19:50.718Z,9.57
2018-11-02T08:22:19.143Z,9.72
2018-11-02T08:24:47.570Z,9.93
2018-11-02T08:27:16.009Z,10.20
2018-11-02T08:29:44.488Z,10.29
2018-11-02T08:32:13.056Z,10.33
2018-11-02T08:34:41.501Z,10.41
2018-11-02T08:37:09.946Z,10.47
2018-11-02T08:39:38.357Z,10.55
2018-11-02T08:42:06.994Z,10.67
2018-11-02T08:44:35.457Z,10.73
2018-11-02T08:47:03.875Z,10.96
2018-11-02T08:49:32.419Z,11.24
2018-11-02T08:52:00.885Z,11.54
2018-11-02T08:54:29.395Z,11.80
2018-11-02T08:56:57.804Z,11.74
2018-11-02T08:59:26.361Z,11.51
2018-11-02T09:01:54.689Z,11.33
2018-11-02T09:04:23.160Z,11.23
2018-11-02T09:06:51.594Z,11.12
2018-11-02T09:09:20.053Z,10.99
2018-11-02T09:11:48.487Z,10.95
2018-11-02T09:14:16.900Z,10.84
2018-11-02T09:16:45.384Z,10.84
2018-11-02T09:19:13.826Z,10.93
2018-11-02T09:21:42.293Z,11.01
2018-11-02T09:24:10.737Z,11.04
2018-11-02T09:26:39.182Z,11.01
2018-11-02T09:29:07.631Z,11.00
2018-11-02T09:31:36.058Z,10.98
2018-11-02T09:34:04.505Z,10.94
2018-11-02T09:36:32.951Z,10.95
2018-11-02T09:39:01.470Z,10.92
2018-11-02T09:41:29.928Z,10.90
2018-11-02T09:43:58.447Z,10.90
2018-11-02T09:46:29.141Z,10.87
2018-11-02T09:48:58.629Z,10.83
2018-11-02T09:51:29.203Z,10.75
2018-11-02T09:53:58.915Z,10.70
2018-11-02T09:56:29.271Z,10.71
2018-11-02T09:58:59.564Z,10.70
2018-11-02T10:01:30.123Z,10.69
2018-11-02T10:03:59.939Z,10.64
2018-11-02T10:06:28.443Z,10.65
2018-11-02T10:08:56.975Z,10.64
2018-11-02T10:11:25.377Z,10.69
2018-11-02T10:13:55.049Z,10.76
2018-11-02T10:16:23.490Z,10.84
2018-11-02T10:18:52.179Z,10.89
2018-11-02T10:21:20.656Z,10.91
2018-11-02T10:23:49.138Z,10.93
2018-11-02T10:26:17.841Z,10.96
2018-11-02T10:28:46.340Z,10.96
2018-11-02T10:31:14.792Z,10.94
2018-11-02T10:33:43.269Z,10.95
2018-11-02T10:36:11.835Z,11.06
2018-11-02T10:38:40.287Z,11.24
2018-11-02T10:41:09.753Z,11.46
2018-11-02T10:43:38.237Z,11.67
2018-11-02T10:46:06.734Z,11.83
2018-11-02T10:48:35.161Z,11.91
2018-11-02T10:51:03.686Z,11.81
2018-11-02T10:53:32.166Z,11.67
2018-11-02T10:56:00.732Z,11.46
2018-11-02T10:58:29.195Z,11.30
2018-11-02T11:01:03.229Z,11.11
2018-11-02T11:03:31.502Z,10.95
2018-11-02T11:06:00.053Z,10.88
2018-11-02T11:08:28.468Z,10.86
2018-11-02T11:10:56.949Z,10.88
2018-11-02T11:13:25.754Z,10.96
2018-11-02T11:15:53.914Z,11.12
2018-11-02T11:18:22.370Z,11.37
2018-11-02T11:20:50.820Z,11.56
2018-11-02T11:23:19.278Z,11.46
2018-11-02T11:25:47.750Z,11.25
2018-11-02T11:28:16.211Z,11.11
2018-11-02T11:30:44.645Z,10.99
2018-11-02T11:33:13.137Z,11.04
2018-11-02T11:35:41.553Z,11.18
2018-11-02T11:38:10.024Z,11.16
2018-11-02T11:40:38.505Z,11.12
2018-11-02T11:43:06.953Z,11.08
2018-11-02T11:45:35.423Z,10.99
2018-11-02T11:48:03.840Z,10.88
2018-11-02T11:50:32.272Z,10.80
2018-11-02T11:53:00.756Z,10.93
2018-11-02T11:55:29.182Z,11.26
2018-11-02T11:57:57.656Z,11.54
2018-11-02T12:00:26.113Z,11.77
2018-11-02T12:02:54.590Z,11.88
2018-11-02T12:05:24.108Z,11.97
2018-11-02T12:07:52.598Z,12.06
2018-11-02T12:10:23.735Z,12.18
2018-11-02T12:12:52.226Z,12.27
2018-11-02T12:15:21.892Z,12.35
2018-11-02T12:17:51.743Z,12.20
2018-11-02T12:20:21.744Z,12.14
2018-11-02T12:22:51.201Z,12.15
2018-11-02T12:25:19.636Z,11.98
2018-11-02T12:27:48.125Z,11.67
2018-11-02T12:30:17.705Z,11.56
2018-11-02T12:32:46.159Z,11.40
2018-11-02T12:35:15.833Z,11.37
2018-11-02T12:37:44.292Z,11.43
2018-11-02T12:40:14.884Z,11.58
2018-11-02T12:42:43.932Z,11.75
2018-11-02T12:45:13.621Z,11.91
2018-11-02T12:47:42.424Z,12.10
2018-11-02T12:50:19.592Z,12.15
2018-11-02T12:52:48.943Z,12.22
2018-11-02T12:55:17.876Z,12.21
2018-11-02T12:57:46.311Z,12.23
2018-11-02T13:00:16.553Z,12.25
2018-11-02T13:02:45.708Z,12.38
2018-11-02T13:05:14.163Z,12.51
2018-11-02T13:07:42.609Z,12.69
2018-11-02T13:10:12.749Z,12.77
2018-11-02T13:12:41.216Z,12.67
2018-11-02T13:15:12.624Z,12.50
2018-11-02T13:17:42.017Z,12.40
2018-11-02T13:20:11.030Z,12.36
2018-11-02T13:22:40.153Z,12.26
2018-11-02T13:25:10.120Z,12.14
2018-11-02T13:27:38.535Z,12.12
2018-11-02T13:30:07.515Z,12.06
2018-11-02T13:32:36.209Z,12.03
2018-11-02T13:35:04.780Z,11.96
2018-11-02T13:37:33.200Z,11.89
2018-11-02T13:40:01.737Z,11.86
2018-11-02T13:42:30.155Z,11.79
2018-11-02T13:44:58.609Z,11.72
2018-11-02T13:47:27.123Z,11.68
2018-11-02T13:49:55.605Z,11.52
2018-11-02T13:52:24.045Z,11.45
2018-11-02T13:54:52.513Z,11.42
2018-11-02T13:57:20.957Z,11.34
2018-11-02T13:59:49.438Z,11.29
2018-11-02T14:02:17.880Z,11.27
2018-11-02T14:04:46.307Z,11.30
2018-11-02T14:07:14.768Z,11.30
2018-11-02T14:09:43.190Z,11.31
2018-11-02T14:12:11.708Z,11.35
2018-11-02T14:14:40.147Z,11.34
2018-11-02T14:17:08.753Z,11.33
2018-11-02T14:19:37.188Z,11.33
2018-11-02T14:22:05.676Z,11.33
2018-11-02T14:24:34.119Z,11.30
2018-11-02T14:27:02.590Z,11.26
2018-11-02T14:29:31.093Z,11.15
2018-11-02T14:31:59.521Z,11.05
2018-11-02T14:34:27.969Z,10.97
2018-11-02T14:36:56.531Z,10.92
2018-11-02T14:39:24.971Z,10.97
2018-11-02T14:41:53.445Z,11.09
2018-11-02T14:44:21.904Z,11.18
2018-11-02T14:46:50.403Z,11.17
2018-11-02T14:49:18.881Z,11.07
2018-11-02T14:51:47.341Z,10.86
2018-11-02T14:54:15.782Z,10.70
2018-11-02T14:56:44.275Z,10.56
2018-11-02T14:59:12.713Z,10.42
2018-11-02T15:01:41.227Z,10.36
2018-11-02T15:04:09.641Z,10.34
2018-11-02T15:06:38.143Z,10.34
2018-11-02T15:09:10.293Z,10.33
2018-11-02T15:11:38.773Z,10.31
2018-11-02T15:14:07.629Z,10.21
2018-11-02T15:16:36.152Z,10.05
2018-11-02T15:19:04.925Z,9.93
2018-11-02T15:21:33.383Z,9.81
2018-11-02T15:24:01.829Z,9.69
2018-11-02T15:26:30.264Z,9.62
2018-11-02T15:28:58.720Z,9.55
2018-11-02T15:31:27.158Z,9.42
2018-11-02T15:33:55.622Z,9.24
2018-11-02T15:36:24.114Z,9.11
2018-11-02T15:38:52.569Z,9.00
2018-11-02T15:41:20.997Z,8.97
2018-11-02T15:43:49.504Z,8.90
2018-11-02T15:46:17.918Z,8.81
2018-11-02T15:48:46.384Z,8.71
2018-11-02T15:51:14.821Z,8.61
2018-11-02T15:53:43.335Z,8.50
2018-11-02T15:56:11.754Z,8.39
2018-11-02T15:58:40.261Z,8.30
2018-11-02T16:01:08.755Z,8.19
2018-11-02T16:03:37.202Z,8.07
2018-11-02T16:06:05.744Z,8.06
2018-11-02T16:08:34.224Z,8.04
2018-11-02T16:11:02.643Z,7.97
2018-11-02T16:13:31.107Z,7.91
2018-11-02T16:15:59.529Z,7.85
2018-11-02T16:18:27.972Z,7.83
2018-11-02T16:20:56.420Z,7.77
2018-11-02T16:23:24.957Z,7.63
2018-11-02T16:25:53.401Z,7.47
2018-11-02T16:28:21.937Z,7.33
2018-11-02T16:30:50.385Z,7.26
2018-11-02T16:33:18.806Z,7.21
2018-11-02T16:35:47.248Z,7.18
2018-11-02T16:38:15.686Z,7.12
2018-11-02T16:40:44.179Z,7.08
2018-11-02T16:43:12.568Z,6.95
2018-11-02T16:45:41.043Z,6.94
2018-11-02T16:48:09.543Z,6.91
2018-11-02T16:50:37.950Z,6.87
2018-11-02T16:53:06.491Z,6.89
2018-11-02T16:55:34.997Z,6.89
2018-11-02T16:58:03.497Z,6.84
2018-11-02T17:00:31.880Z,6.88
2018-11-02T17:03:00.316Z,6.86
2018-11-02T17:05:28.781Z,6.80
2018-11-02T17:07:57.204Z,6.81
2018-11-02T17:10:25.669Z,6.75
2018-11-02T17:12:54.110Z,6.70
2018-11-02T17:15:22.597Z,6.67
2018-11-02T17:17:51.009Z,6.62
2018-11-02T17:20:19.469Z,6.60
2018-11-02T17:22:48.222Z,6.55
2018-11-02T17:25:16.637Z,6.45
2018-11-02T17:27:45.103Z,6.39
2018-11-02T17:30:14.849Z,6.37
2018-11-02T17:32:43.313Z,6.38
2018-11-02T17:35:12.046Z,6.41
2018-11-02T17:37:40.509Z,6.40
2018-11-02T17:40:10.884Z,6.37
2018-11-02T17:42:39.361Z,6.24
2018-11-02T17:45:08.351Z,6.14
2018-11-02T17:47:37.717Z,6.15
2018-11-02T17:50:06.517Z,6.14
2018-11-02T17:52:34.961Z,6.07
2018-11-02T17:55:03.449Z,6.04
2018-11-02T17:57:31.989Z,6.00
2018-11-02T18:00:00.468Z,6.01
2018-11-02T18:02:28.924Z,5.98
2018-11-02T18:04:57.356Z,5.93
2018-11-02T18:07:25.824Z,5.91
2018-11-02T18:09:54.287Z,5.90
2018-11-02T18:12:22.870Z,5.88
2018-11-02T18:14:51.210Z,5.89
2018-11-02T18:17:19.693Z,5.77
2018-11-02T18:19:48.137Z,5.71
2018-11-02T18:22:16.726Z,5.61
2018-11-02T18:24:45.074Z,5.49
2018-11-02T18:27:13.539Z,5.42
2018-11-02T18:29:42.010Z,5.39
2018-11-02T18:32:10.468Z,5.33
2018-11-02T18:34:38.946Z,5.32
2018-11-02T18:37:07.382Z,5.14
2018-11-02T18:39:35.857Z,4.94
2018-11-02T18:42:04.338Z,4.84
2018-11-02T18:44:32.763Z,4.81
2018-11-02T18:47:01.202Z,4.87
2018-11-02T18:49:29.670Z,4.90
2018-11-02T18:51:58.108Z,4.87
2018-11-02T18:54:26.563Z,4.88
2018-11-02T18:56:54.992Z,4.89
2018-11-02T18:59:23.479Z,4.87
2018-11-02T19:01:51.920Z,4.82
2018-11-02T19:04:20.408Z,4.84
2018-11-02T19:06:48.880Z,4.84
2018-11-02T19:09:17.329Z,4.73
2018-11-02T19:11:45.762Z,4.54
2018-11-02T19:14:14.228Z,4.45
2018-11-02T19:16:42.701Z,4.44
2018-11-02T19:19:11.196Z,4.45
2018-11-02T19:21:39.671Z,4.44
2018-11-02T19:24:08.127Z,4.34
2018-11-02T19:26:36.589Z,4.27
2018-11-02T19:29:05.388Z,4.30
2018-11-02T19:31:33.829Z,4.39
2018-11-02T19:34:02.360Z,4.37
2018-11-02T19:36:30.735Z,4.31
2018-11-02T19:38:59.198Z,4.29
2018-11-02T19:41:27.677Z,4.24
2018-11-02T19:43:56.108Z,4.22
2018-11-02T19:46:24.570Z,4.18
2018-11-02T19:48:53.029Z,4.11
2018-11-02T19:51:21.474Z,4.02
2018-11-02T19:53:49.919Z,3.93
2018-11-02T19:56:18.356Z,3.88
2018-11-02T19:58:46.777Z,3.83
2018-11-02T20:01:15.305Z,3.83
2018-11-02T20:03:43.741Z,3.76
2018-11-02T20:06:12.205Z,3.68
2018-11-02T20:08:40.733Z,3.60
2018-11-02T20:11:09.237Z,3.56
2018-11-02T20:13:37.708Z,3.59
2018-11-02T20:16:06.469Z,3.54
2018-11-02T20:18:34.892Z,3.44
2018-11-02T20:21:03.360Z,3.33
2018-11-02T20:23:31.812Z,3.21
2018-11-02T20:26:00.288Z,3.12
2018-11-02T20:28:28.684Z,3.05
2018-11-02T20:30:57.139Z,3.00
2018-11-02T20:33:25.573Z,3.00
2018-11-02T20:35:54.025Z,2.96
2018-11-02T20:38:22.453Z,2.96
2018-11-02T20:40:50.892Z,2.99
2018-11-02T20:43:19.339Z,3.00
2018-11-02T20:45:47.789Z,2.93
2018-11-02T20:48:16.236Z,2.92
2018-11-02T20:50:44.702Z,2.87
2018-11-02T20:53:13.137Z,2.86
2018-11-02T20:55:41.577Z,2.95
2018-11-02T20:58:10.076Z,3.00
2018-11-02T21:00:38.518Z,3.02
2018-11-02T21:03:07.000Z,2.96
2018-11-02T21:05:35.452Z,2.98
2018-11-02T21:08:04.001Z,3.01
2018-11-02T21:10:32.418Z,2.95
2018-11-02T21:13:00.913Z,2.86
2018-11-02T21:15:29.343Z,2.84
2018-11-02T21:17:57.805Z,2.83
2018-11-02T21:20:26.897Z,2.81
2018-11-02T21:22:55.325Z,2.78
2018-11-02T21:25:23.754Z,2.80
2018-11-02T21:27:52.216Z,2.81
2018-11-02T21:30:23.016Z,2.50
2018-11-02T21:32:52.066Z,2.27
2018-11-02T21:35:21.069Z,2.15
2018-11-02T21:37:49.914Z,2.03
2018-11-02T21:40:19.687Z,2.01
2018-11-02T21:42:48.157Z,2.07
2018-11-02T21:45:18.010Z,2.15
2018-11-02T21:47:46.730Z,2.25
2018-11-02T21:50:15.614Z,2.29
2018-11-02T21:52:44.210Z,2.32
2018-11-02T21:55:12.652Z,2.35
2018-11-02T21:57:41.124Z,2.39
2018-11-02T22:00:15.500Z,2.51
2018-11-02T22:02:44.030Z,2.67
2018-11-02T22:05:13.281Z,2.77
2018-11-02T22:07:42.828Z,2.76
2018-11-02T22:10:12.012Z,2.73
2018-11-02T22:12:40.457Z,2.71
2018-11-02T22:15:09.752Z,2.74
2018-11-02T22:17:38.461Z,2.76
2018-11-02T22:20:08.477Z,2.80
2018-11-02T22:22:36.969Z,2.81
2018-11-02T22:25:06.727Z,2.82
2018-11-02T22:27:35.235Z,2.84
2018-11-02T22:30:03.761Z,2.82
2018-11-02T22:32:32.199Z,2.84
2018-11-02T22:35:00.657Z,2.77
2018-11-02T22:37:29.072Z,2.67
2018-11-02T22:39:57.800Z,2.56
2018-11-02T22:42:26.299Z,2.51
2018-11-02T22:44:54.741Z,2.53
2018-11-02T22:47:23.170Z,2.63
2018-11-02T22:49:51.642Z,2.69
2018-11-02T22:52:20.129Z,2.71
2018-11-02T22:54:48.599Z,2.74
2018-11-02T22:57:17.032Z,2.77
2018-11-02T22:59:45.501Z,2.76
2018-11-02T23:02:13.941Z,2.70
2018-11-02T23:04:42.391Z,2.64
2018-11-02T23:07:10.819Z,2.53
2018-11-02T23:09:39.268Z,2.42
2018-11-02T23:12:07.754Z,2.34
2018-11-02T23:14:36.202Z,2.31
2018-11-02T23:17:04.670Z,2.31
2018-11-02T23:19:33.164Z,2.33
2018-11-02T23:22:01.566Z,2.35
2018-11-02T23:24:30.033Z,2.36
2018-11-02T23:26:58.479Z,2.34
2018-11-02T23:29:26.995Z,2.35
2018-11-02T23:31:55.380Z,2.33
2018-11-02T23:34:23.831Z,2.31
2018-11-02T23:36:52.271Z,2.35
2018-11-02T23:39:20.712Z,2.39
2018-11-02T23:41:49.149Z,2.37
2018-11-02T23:44:17.596Z,2.31
2018-11-02T23:46:46.021Z,2.22
2018-11-02T23:49:14.718Z,2.11
2018-11-02T23:51:43.160Z,2.07
2018-11-02T23:54:11.622Z,2.08
2018-11-02T23:56:40.068Z,2.12
2018-11-02T23:59:08.537Z,2.14
